YGIL weather

Gilgandra Airport
New South Wales, Australia

Public forecast

Using degrees Celsius for public forecast. Weather courtesy of forecast.io.

METAR (pilot weather report)

Closest report is Dubbo City Regional Airport, 31.0 nm (57.4 km) S. Retrieved 2019/07/21 01:30 UTC (0 seconds ago):

YSDU 210130Z AUTO 32012KT 9999 // NCD 19/01 Q1018 RF00.0/000.0

TAF (pilot weather forecast)

Forecast is more than 12 hours old.

Closest forecast is Dubbo City Regional Airport, 31.0 nm (57.4 km) S. Retrieved 2019/07/20 00:39 UTC (1 day ago):

TAF YSDU 202230Z 2100/2118 34012KT CAVOK FM211000 02006KT CAVOK RMK FROM 210000 MOD TURB BLW 5000FT TL210200 T 13 19 19 12 Q 1019 1016 1014 1015